sensor_id;sensor_type;location;lat;lon;timestamp;P1;durP1;ratioP1;P2;durP2;ratioP2
50345;SDS011;36248;37.258;-121.918;2022-09-30T00:01:50;2.14;;;2.10;;
50345;SDS011;36248;37.258;-121.918;2022-09-30T00:04:20;1.83;;;1.80;;
50345;SDS011;36248;37.258;-121.918;2022-09-30T00:06:51;2.13;;;2.06;;
50345;SDS011;36248;37.258;-121.918;2022-09-30T00:09:24;1.97;;;1.93;;
50345;SDS011;36248;37.258;-121.918;2022-09-30T00:11:54;1.92;;;1.88;;
50345;SDS011;36248;37.258;-121.918;2022-09-30T00:14:24;1.89;;;1.85;;
50345;SDS011;36248;37.258;-121.918;2022-09-30T00:16:55;2.08;;;2.01;;
50345;SDS011;36248;37.258;-121.918;2022-09-30T00:19:25;1.96;;;1.90;;
50345;SDS011;36248;37.258;-121.918;2022-09-30T00:21:55;1.88;;;1.81;;
50345;SDS011;36248;37.258;-121.918;2022-09-30T00:24:28;1.79;;;1.76;;
50345;SDS011;36248;37.258;-121.918;2022-09-30T00:27:00;1.80;;;1.77;;
50345;SDS011;36248;37.258;-121.918;2022-09-30T00:29:30;1.85;;;1.82;;
50345;SDS011;36248;37.258;-121.918;2022-09-30T00:32:00;1.94;;;1.89;;
50345;SDS011;36248;37.258;-121.918;2022-09-30T00:34:30;1.86;;;1.81;;
50345;SDS011;36248;37.258;-121.918;2022-09-30T00:36:59;1.89;;;1.84;;
50345;SDS011;36248;37.258;-121.918;2022-09-30T00:39:32;2.09;;;2.03;;
50345;SDS011;36248;37.258;-121.918;2022-09-30T00:42:02;1.83;;;1.79;;
50345;SDS011;36248;37.258;-121.918;2022-09-30T00:44:48;1.68;;;1.65;;
50345;SDS011;36248;37.258;-121.918;2022-09-30T00:50:14;1.98;;;1.95;;
50345;SDS011;36248;37.258;-121.918;2022-09-30T00:52:51;2.05;;;2.00;;
50345;SDS011;36248;37.258;-121.918;2022-09-30T00:55:32;1.78;;;1.72;;
50345;SDS011;36248;37.258;-121.918;2022-09-30T00:58:08;1.97;;;1.92;;
50345;SDS011;36248;37.258;-121.918;2022-09-30T01:00:43;2.20;;;2.16;;
50345;SDS011;36248;37.258;-121.918;2022-09-30T01:03:13;2.17;;;2.11;;
50345;SDS011;36248;37.258;-121.918;2022-09-30T01:05:44;2.17;;;2.10;;
50345;SDS011;36248;37.258;-121.918;2022-09-30T01:08:13;2.13;;;2.06;;
50345;SDS011;36248;37.258;-121.918;2022-09-30T01:10:48;2.05;;;1.98;;
50345;SDS011;36248;37.258;-121.918;2022-09-30T01:13:18;2.33;;;2.24;;
50345;SDS011;36248;37.258;-121.918;2022-09-30T01:16:05;1.99;;;1.93;;
50345;SDS011;36248;37.258;-121.918;2022-09-30T01:18:49;2.05;;;1.98;;
50345;SDS011;36248;37.258;-121.918;2022-09-30T01:24:39;2.23;;;2.14;;
50345;SDS011;36248;37.258;-121.918;2022-09-30T01:30:40;2.53;;;2.37;;
50345;SDS011;36248;37.258;-121.918;2022-09-30T01:33:19;2.82;;;2.60;;
50345;SDS011;36248;37.258;-121.918;2022-09-30T01:36:11;2.44;;;2.29;;
50345;SDS011;36248;37.258;-121.918;2022-09-30T01:38:55;2.18;;;2.07;;
50345;SDS011;36248;37.258;-121.918;2022-09-30T01:41:37;3.00;;;2.86;;
50345;SDS011;36248;37.258;-121.918;2022-09-30T01:44:13;2.35;;;2.24;;
50345;SDS011;36248;37.258;-121.918;2022-09-30T01:46:51;1.92;;;1.82;;
50345;SDS011;36248;37.258;-121.918;2022-09-30T01:49:26;1.73;;;1.64;;
50345;SDS011;36248;37.258;-121.918;2022-09-30T01:52:00;1.93;;;1.80;;
50345;SDS011;36248;37.258;-121.918;2022-09-30T01:54:36;2.44;;;2.26;;
50345;SDS011;36248;37.258;-121.918;2022-09-30T01:57:14;2.20;;;2.04;;
50345;SDS011;36248;37.258;-121.918;2022-09-30T01:59:50;2.11;;;1.98;;
50345;SDS011;36248;37.258;-121.918;2022-09-30T02:02:28;2.33;;;2.18;;
50345;SDS011;36248;37.258;-121.918;2022-09-30T02:05:01;2.45;;;2.24;;
50345;SDS011;36248;37.258;-121.918;2022-09-30T02:07:36;2.41;;;2.15;;
50345;SDS011;36248;37.258;-121.918;2022-09-30T02:10:11;2.72;;;2.43;;
50345;SDS011;36248;37.258;-121.918;2022-09-30T02:12:45;2.66;;;2.35;;
50345;SDS011;36248;37.258;-121.918;2022-09-30T02:15:23;2.78;;;2.44;;
50345;SDS011;36248;37.258;-121.918;2022-09-30T02:18:03;2.41;;;2.16;;
50345;SDS011;36248;37.258;-121.918;2022-09-30T02:20:40;2.45;;;2.17;;
50345;SDS011;36248;37.258;-121.918;2022-09-30T02:23:13;2.24;;;2.02;;
50345;SDS011;36248;37.258;-121.918;2022-09-30T02:25:47;2.45;;;2.19;;
50345;SDS011;36248;37.258;-121.918;2022-09-30T02:28:22;2.08;;;1.87;;
50345;SDS011;36248;37.258;-121.918;2022-09-30T02:30:55;2.18;;;1.99;;
50345;SDS011;36248;37.258;-121.918;2022-09-30T02:33:30;2.04;;;1.85;;
50345;SDS011;36248;37.258;-121.918;2022-09-30T02:36:06;1.90;;;1.73;;
50345;SDS011;36248;37.258;-121.918;2022-09-30T02:38:41;2.12;;;1.91;;
50345;SDS011;36248;37.258;-121.918;2022-09-30T02:41:16;2.37;;;2.13;;
50345;SDS011;36248;37.258;-121.918;2022-09-30T02:43:51;2.19;;;2.02;;
50345;SDS011;36248;37.258;-121.918;2022-09-30T02:46:24;2.21;;;2.03;;
50345;SDS011;36248;37.258;-121.918;2022-09-30T02:49:05;2.26;;;2.01;;
50345;SDS011;36248;37.258;-121.918;2022-09-30T02:51:46;2.50;;;2.26;;
50345;SDS011;36248;37.258;-121.918;2022-09-30T02:54:39;2.19;;;1.95;;
50345;SDS011;36248;37.258;-121.918;2022-09-30T02:57:18;2.15;;;1.90;;
50345;SDS011;36248;37.258;-121.918;2022-09-30T02:59:54;2.44;;;2.20;;
50345;SDS011;36248;37.258;-121.918;2022-09-30T03:02:25;2.02;;;1.87;;
50345;SDS011;36248;37.258;-121.918;2022-09-30T03:04:58;2.28;;;2.11;;
50345;SDS011;36248;37.258;-121.918;2022-09-30T03:07:28;2.28;;;2.14;;
50345;SDS011;36248;37.258;-121.918;2022-09-30T03:09:58;2.53;;;2.36;;
50345;SDS011;36248;37.258;-121.918;2022-09-30T03:12:32;2.66;;;2.44;;
50345;SDS011;36248;37.258;-121.918;2022-09-30T03:15:22;4.68;;;4.50;;
50345;SDS011;36248;37.258;-121.918;2022-09-30T03:18:14;5.98;;;5.83;;
50345;SDS011;36248;37.258;-121.918;2022-09-30T03:21:11;4.56;;;4.44;;
50345;SDS011;36248;37.258;-121.918;2022-09-30T03:23:59;3.48;;;3.38;;
50345;SDS011;36248;37.258;-121.918;2022-09-30T03:26:58;2.46;;;2.33;;
50345;SDS011;36248;37.258;-121.918;2022-09-30T03:29:42;2.60;;;2.42;;
50345;SDS011;36248;37.258;-121.918;2022-09-30T03:32:21;2.60;;;2.39;;
50345;SDS011;36248;37.258;-121.918;2022-09-30T03:35:00;2.68;;;2.47;;
50345;SDS011;36248;37.258;-121.918;2022-09-30T03:37:42;2.44;;;2.25;;
50345;SDS011;36248;37.258;-121.918;2022-09-30T03:40:22;2.70;;;2.43;;
50345;SDS011;36248;37.258;-121.918;2022-09-30T03:42:59;2.61;;;2.31;;
50345;SDS011;36248;37.258;-121.918;2022-09-30T03:45:36;2.69;;;2.39;;
50345;SDS011;36248;37.258;-121.918;2022-09-30T03:48:11;2.36;;;2.13;;
50345;SDS011;36248;37.258;-121.918;2022-09-30T03:50:44;2.67;;;2.42;;
50345;SDS011;36248;37.258;-121.918;2022-09-30T03:53:18;2.63;;;2.40;;
50345;SDS011;36248;37.258;-121.918;2022-09-30T03:55:53;2.77;;;2.52;;
50345;SDS011;36248;37.258;-121.918;2022-09-30T03:58:24;2.75;;;2.49;;
50345;SDS011;36248;37.258;-121.918;2022-09-30T04:00:55;2.99;;;2.64;;
50345;SDS011;36248;37.258;-121.918;2022-09-30T04:03:25;3.32;;;2.84;;
50345;SDS011;36248;37.258;-121.918;2022-09-30T04:05:55;2.91;;;2.50;;
50345;SDS011;36248;37.258;-121.918;2022-09-30T04:08:27;3.04;;;2.63;;
50345;SDS011;36248;37.258;-121.918;2022-09-30T04:10:59;3.09;;;2.64;;
50345;SDS011;36248;37.258;-121.918;2022-09-30T04:13:32;2.94;;;2.54;;
50345;SDS011;36248;37.258;-121.918;2022-09-30T04:16:02;3.16;;;2.68;;
50345;SDS011;36248;37.258;-121.918;2022-09-30T04:18:34;3.36;;;2.83;;
50345;SDS011;36248;37.258;-121.918;2022-09-30T04:21:04;3.08;;;2.59;;
50345;SDS011;36248;37.258;-121.918;2022-09-30T04:23:38;3.27;;;2.79;;
50345;SDS011;36248;37.258;-121.918;2022-09-30T04:26:10;3.97;;;3.30;;
50345;SDS011;36248;37.258;-121.918;2022-09-30T04:28:41;3.76;;;3.13;;
50345;SDS011;36248;37.258;-121.918;2022-09-30T04:31:11;3.78;;;3.15;;
50345;SDS011;36248;37.258;-121.918;2022-09-30T04:33:42;3.97;;;3.33;;
50345;SDS011;36248;37.258;-121.918;2022-09-30T04:36:12;5.18;;;4.19;;
50345;SDS011;36248;37.258;-121.918;2022-09-30T04:38:44;4.56;;;3.67;;
50345;SDS011;36248;37.258;-121.918;2022-09-30T04:41:15;4.45;;;3.66;;
50345;SDS011;36248;37.258;-121.918;2022-09-30T04:43:45;4.01;;;3.34;;
50345;SDS011;36248;37.258;-121.918;2022-09-30T04:46:17;3.20;;;2.74;;
50345;SDS011;36248;37.258;-121.918;2022-09-30T04:48:48;2.88;;;2.55;;
50345;SDS011;36248;37.258;-121.918;2022-09-30T04:51:18;3.11;;;2.84;;
50345;SDS011;36248;37.258;-121.918;2022-09-30T04:53:52;3.11;;;2.90;;
50345;SDS011;36248;37.258;-121.918;2022-09-30T04:56:21;2.73;;;2.56;;
50345;SDS011;36248;37.258;-121.918;2022-09-30T04:58:51;2.92;;;2.70;;
50345;SDS011;36248;37.258;-121.918;2022-09-30T05:01:21;2.93;;;2.71;;
50345;SDS011;36248;37.258;-121.918;2022-09-30T05:03:52;3.46;;;3.19;;
50345;SDS011;36248;37.258;-121.918;2022-09-30T05:06:22;3.16;;;2.93;;
50345;SDS011;36248;37.258;-121.918;2022-09-30T05:08:54;2.54;;;2.33;;
50345;SDS011;36248;37.258;-121.918;2022-09-30T05:11:25;3.07;;;2.82;;
50345;SDS011;36248;37.258;-121.918;2022-09-30T05:13:55;2.75;;;2.55;;
50345;SDS011;36248;37.258;-121.918;2022-09-30T05:16:25;2.89;;;2.64;;
50345;SDS011;36248;37.258;-121.918;2022-09-30T05:18:55;2.72;;;2.50;;
50345;SDS011;36248;37.258;-121.918;2022-09-30T05:21:25;2.54;;;2.38;;
50345;SDS011;36248;37.258;-121.918;2022-09-30T05:23:57;2.46;;;2.32;;
50345;SDS011;36248;37.258;-121.918;2022-09-30T05:26:27;2.71;;;2.53;;
50345;SDS011;36248;37.258;-121.918;2022-09-30T05:28:57;2.66;;;2.53;;
50345;SDS011;36248;37.258;-121.918;2022-09-30T05:31:28;2.66;;;2.55;;
50345;SDS011;36248;37.258;-121.918;2022-09-30T05:33:58;2.75;;;2.61;;
50345;SDS011;36248;37.258;-121.918;2022-09-30T05:36:29;2.62;;;2.50;;
50345;SDS011;36248;37.258;-121.918;2022-09-30T05:39:01;2.40;;;2.32;;
50345;SDS011;36248;37.258;-121.918;2022-09-30T05:41:31;2.80;;;2.66;;
50345;SDS011;36248;37.258;-121.918;2022-09-30T05:44:01;2.75;;;2.58;;
50345;SDS011;36248;37.258;-121.918;2022-09-30T05:46:31;2.76;;;2.59;;
50345;SDS011;36248;37.258;-121.918;2022-09-30T05:49:02;2.83;;;2.65;;
50345;SDS011;36248;37.258;-121.918;2022-09-30T05:51:32;3.11;;;2.91;;
50345;SDS011;36248;37.258;-121.918;2022-09-30T05:54:05;2.75;;;2.55;;
50345;SDS011;36248;37.258;-121.918;2022-09-30T05:56:35;2.62;;;2.43;;
50345;SDS011;36248;37.258;-121.918;2022-09-30T05:59:05;2.59;;;2.42;;
50345;SDS011;36248;37.258;-121.918;2022-09-30T06:01:35;2.67;;;2.52;;
50345;SDS011;36248;37.258;-121.918;2022-09-30T06:04:06;2.91;;;2.69;;
50345;SDS011;36248;37.258;-121.918;2022-09-30T06:06:35;3.02;;;2.80;;
50345;SDS011;36248;37.258;-121.918;2022-09-30T06:09:07;2.69;;;2.52;;
50345;SDS011;36248;37.258;-121.918;2022-09-30T06:11:37;2.86;;;2.69;;
50345;SDS011;36248;37.258;-121.918;2022-09-30T06:14:08;2.69;;;2.55;;
50345;SDS011;36248;37.258;-121.918;2022-09-30T06:16:37;2.86;;;2.70;;
50345;SDS011;36248;37.258;-121.918;2022-09-30T06:19:07;2.99;;;2.76;;
50345;SDS011;36248;37.258;-121.918;2022-09-30T06:21:38;2.72;;;2.57;;
50345;SDS011;36248;37.258;-121.918;2022-09-30T06:24:09;2.65;;;2.53;;
50345;SDS011;36248;37.258;-121.918;2022-09-30T06:26:39;2.49;;;2.36;;
50345;SDS011;36248;37.258;-121.918;2022-09-30T06:29:12;2.91;;;2.69;;
50345;SDS011;36248;37.258;-121.918;2022-09-30T06:31:42;2.90;;;2.65;;
50345;SDS011;36248;37.258;-121.918;2022-09-30T06:34:11;2.73;;;2.51;;
50345;SDS011;36248;37.258;-121.918;2022-09-30T06:36:43;2.88;;;2.67;;
50345;SDS011;36248;37.258;-121.918;2022-09-30T06:39:18;2.71;;;2.53;;
50345;SDS011;36248;37.258;-121.918;2022-09-30T06:41:48;2.58;;;2.45;;
50345;SDS011;36248;37.258;-121.918;2022-09-30T06:44:18;2.60;;;2.46;;
50345;SDS011;36248;37.258;-121.918;2022-09-30T06:46:48;2.71;;;2.53;;
50345;SDS011;36248;37.258;-121.918;2022-09-30T06:49:17;2.75;;;2.58;;
50345;SDS011;36248;37.258;-121.918;2022-09-30T06:51:47;2.54;;;2.46;;
50345;SDS011;36248;37.258;-121.918;2022-09-30T06:54:21;2.76;;;2.65;;
50345;SDS011;36248;37.258;-121.918;2022-09-30T06:56:51;2.74;;;2.61;;
50345;SDS011;36248;37.258;-121.918;2022-09-30T06:59:22;2.72;;;2.57;;
50345;SDS011;36248;37.258;-121.918;2022-09-30T07:01:52;2.90;;;2.75;;
50345;SDS011;36248;37.258;-121.918;2022-09-30T07:04:23;2.75;;;2.59;;
50345;SDS011;36248;37.258;-121.918;2022-09-30T07:06:52;3.04;;;2.87;;
50345;SDS011;36248;37.258;-121.918;2022-09-30T07:09:24;2.76;;;2.65;;
50345;SDS011;36248;37.258;-121.918;2022-09-30T07:11:54;2.61;;;2.49;;
50345;SDS011;36248;37.258;-121.918;2022-09-30T07:14:24;2.54;;;2.44;;
50345;SDS011;36248;37.258;-121.918;2022-09-30T07:16:56;2.56;;;2.45;;
50345;SDS011;36248;37.258;-121.918;2022-09-30T07:19:28;2.51;;;2.39;;
50345;SDS011;36248;37.258;-121.918;2022-09-30T07:22:01;2.75;;;2.62;;
50345;SDS011;36248;37.258;-121.918;2022-09-30T07:24:45;2.78;;;2.63;;
50345;SDS011;36248;37.258;-121.918;2022-09-30T07:27:15;2.62;;;2.47;;
50345;SDS011;36248;37.258;-121.918;2022-09-30T07:29:45;2.74;;;2.59;;
50345;SDS011;36248;37.258;-121.918;2022-09-30T07:32:15;2.30;;;2.21;;
50345;SDS011;36248;37.258;-121.918;2022-09-30T07:34:46;2.18;;;2.12;;
50345;SDS011;36248;37.258;-121.918;2022-09-30T07:37:17;2.53;;;2.46;;
50345;SDS011;36248;37.258;-121.918;2022-09-30T07:39:50;2.39;;;2.33;;
50345;SDS011;36248;37.258;-121.918;2022-09-30T07:42:21;2.44;;;2.35;;
50345;SDS011;36248;37.258;-121.918;2022-09-30T07:44:51;2.26;;;2.19;;
50345;SDS011;36248;37.258;-121.918;2022-09-30T07:47:21;2.61;;;2.48;;
50345;SDS011;36248;37.258;-121.918;2022-09-30T07:49:50;2.51;;;2.34;;
50345;SDS011;36248;37.258;-121.918;2022-09-30T07:52:20;2.48;;;2.36;;
50345;SDS011;36248;37.258;-121.918;2022-09-30T07:54:54;2.40;;;2.31;;
50345;SDS011;36248;37.258;-121.918;2022-09-30T07:57:26;2.42;;;2.33;;
50345;SDS011;36248;37.258;-121.918;2022-09-30T07:59:56;2.36;;;2.26;;
50345;SDS011;36248;37.258;-121.918;2022-09-30T08:02:26;2.37;;;2.27;;
50345;SDS011;36248;37.258;-121.918;2022-09-30T08:04:56;2.34;;;2.24;;
50345;SDS011;36248;37.258;-121.918;2022-09-30T08:07:26;2.21;;;2.13;;
50345;SDS011;36248;37.258;-121.918;2022-09-30T08:09:59;2.53;;;2.44;;
50345;SDS011;36248;37.258;-121.918;2022-09-30T08:12:29;2.40;;;2.29;;
50345;SDS011;36248;37.258;-121.918;2022-09-30T08:15:00;2.43;;;2.32;;
50345;SDS011;36248;37.258;-121.918;2022-09-30T08:17:31;2.50;;;2.35;;
50345;SDS011;36248;37.258;-121.918;2022-09-30T08:20:01;2.68;;;2.50;;
50345;SDS011;36248;37.258;-121.918;2022-09-30T08:22:31;2.42;;;2.25;;
50345;SDS011;36248;37.258;-121.918;2022-09-30T08:25:03;2.61;;;2.40;;
50345;SDS011;36248;37.258;-121.918;2022-09-30T08:27:33;2.63;;;2.46;;
50345;SDS011;36248;37.258;-121.918;2022-09-30T08:30:03;2.38;;;2.26;;
50345;SDS011;36248;37.258;-121.918;2022-09-30T08:32:33;2.36;;;2.24;;
50345;SDS011;36248;37.258;-121.918;2022-09-30T08:35:04;2.34;;;2.25;;
50345;SDS011;36248;37.258;-121.918;2022-09-30T08:37:34;2.13;;;2.03;;
50345;SDS011;36248;37.258;-121.918;2022-09-30T08:40:08;2.29;;;2.16;;
50345;SDS011;36248;37.258;-121.918;2022-09-30T08:42:53;2.25;;;2.14;;
50345;SDS011;36248;37.258;-121.918;2022-09-30T08:45:51;2.11;;;2.00;;
50345;SDS011;36248;37.258;-121.918;2022-09-30T08:48:33;1.91;;;1.81;;
50345;SDS011;36248;37.258;-121.918;2022-09-30T08:51:16;2.11;;;2.02;;
50345;SDS011;36248;37.258;-121.918;2022-09-30T08:53:56;2.02;;;1.95;;
50345;SDS011;36248;37.258;-121.918;2022-09-30T08:56:33;1.66;;;1.61;;
50345;SDS011;36248;37.258;-121.918;2022-09-30T08:59:04;1.67;;;1.65;;
50345;SDS011;36248;37.258;-121.918;2022-09-30T09:01:52;1.90;;;1.85;;
50345;SDS011;36248;37.258;-121.918;2022-09-30T09:04:29;1.82;;;1.77;;
50345;SDS011;36248;37.258;-121.918;2022-09-30T09:07:01;1.85;;;1.79;;
50345;SDS011;36248;37.258;-121.918;2022-09-30T09:09:42;1.67;;;1.64;;
50345;SDS011;36248;37.258;-121.918;2022-09-30T09:12:27;1.80;;;1.76;;
50345;SDS011;36248;37.258;-121.918;2022-09-30T09:15:14;1.60;;;1.57;;
50345;SDS011;36248;37.258;-121.918;2022-09-30T09:21:03;1.51;;;1.49;;
50345;SDS011;36248;37.258;-121.918;2022-09-30T09:23:42;1.71;;;1.69;;
50345;SDS011;36248;37.258;-121.918;2022-09-30T09:26:14;1.61;;;1.57;;
50345;SDS011;36248;37.258;-121.918;2022-09-30T09:28:50;1.42;;;1.37;;
50345;SDS011;36248;37.258;-121.918;2022-09-30T09:31:33;1.72;;;1.66;;
50345;SDS011;36248;37.258;-121.918;2022-09-30T09:34:08;1.64;;;1.57;;
50345;SDS011;36248;37.258;-121.918;2022-09-30T09:36:43;1.74;;;1.66;;
50345;SDS011;36248;37.258;-121.918;2022-09-30T09:39:32;1.58;;;1.51;;
50345;SDS011;36248;37.258;-121.918;2022-09-30T09:42:29;1.67;;;1.61;;
50345;SDS011;36248;37.258;-121.918;2022-09-30T09:45:14;1.67;;;1.62;;
50345;SDS011;36248;37.258;-121.918;2022-09-30T09:47:53;1.45;;;1.43;;
50345;SDS011;36248;37.258;-121.918;2022-09-30T09:50:25;1.55;;;1.52;;
50345;SDS011;36248;37.258;-121.918;2022-09-30T09:53:12;1.42;;;1.38;;
50345;SDS011;36248;37.258;-121.918;2022-09-30T09:55:52;1.64;;;1.60;;
50345;SDS011;36248;37.258;-121.918;2022-09-30T09:58:24;1.67;;;1.65;;
50345;SDS011;36248;37.258;-121.918;2022-09-30T10:01:03;1.46;;;1.44;;
50345;SDS011;36248;37.258;-121.918;2022-09-30T10:04:03;1.79;;;1.76;;
50345;SDS011;36248;37.258;-121.918;2022-09-30T10:06:43;1.60;;;1.58;;
50345;SDS011;36248;37.258;-121.918;2022-09-30T10:09:22;1.60;;;1.59;;
50345;SDS011;36248;37.258;-121.918;2022-09-30T10:14:55;1.74;;;1.73;;
50345;SDS011;36248;37.258;-121.918;2022-09-30T10:17:34;1.67;;;1.66;;
50345;SDS011;36248;37.258;-121.918;2022-09-30T10:20:06;1.68;;;1.67;;
50345;SDS011;36248;37.258;-121.918;2022-09-30T10:22:46;1.73;;;1.71;;
50345;SDS011;36248;37.258;-121.918;2022-09-30T10:25:18;1.79;;;1.76;;
50345;SDS011;36248;37.258;-121.918;2022-09-30T10:27:52;1.80;;;1.75;;
50345;SDS011;36248;37.258;-121.918;2022-09-30T10:30:33;2.00;;;1.93;;
50345;SDS011;36248;37.258;-121.918;2022-09-30T10:33:13;1.98;;;1.90;;
50345;SDS011;36248;37.258;-121.918;2022-09-30T10:35:52;2.07;;;1.99;;
50345;SDS011;36248;37.258;-121.918;2022-09-30T10:38:24;1.68;;;1.65;;
50345;SDS011;36248;37.258;-121.918;2022-09-30T10:40:58;1.92;;;1.88;;
50345;SDS011;36248;37.258;-121.918;2022-09-30T10:43:31;1.80;;;1.74;;
50345;SDS011;36248;37.258;-121.918;2022-09-30T10:46:05;1.75;;;1.70;;
50345;SDS011;36248;37.258;-121.918;2022-09-30T10:48:39;1.80;;;1.75;;
50345;SDS011;36248;37.258;-121.918;2022-09-30T10:51:16;1.89;;;1.83;;
50345;SDS011;36248;37.258;-121.918;2022-09-30T10:53:52;1.75;;;1.70;;
50345;SDS011;36248;37.258;-121.918;2022-09-30T10:56:39;1.89;;;1.84;;
50345;SDS011;36248;37.258;-121.918;2022-09-30T10:59:15;1.84;;;1.80;;
50345;SDS011;36248;37.258;-121.918;2022-09-30T11:01:59;1.59;;;1.56;;
50345;SDS011;36248;37.258;-121.918;2022-09-30T11:04:44;1.97;;;1.91;;
50345;SDS011;36248;37.258;-121.918;2022-09-30T11:07:20;1.84;;;1.77;;
50345;SDS011;36248;37.258;-121.918;2022-09-30T11:09:55;2.12;;;2.07;;
50345;SDS011;36248;37.258;-121.918;2022-09-30T11:12:33;1.70;;;1.66;;
50345;SDS011;36248;37.258;-121.918;2022-09-30T11:15:11;1.80;;;1.77;;
50345;SDS011;36248;37.258;-121.918;2022-09-30T11:17:49;1.62;;;1.60;;
50345;SDS011;36248;37.258;-121.918;2022-09-30T11:20:27;2.69;;;2.61;;
50345;SDS011;36248;37.258;-121.918;2022-09-30T11:23:03;5.60;;;5.34;;
50345;SDS011;36248;37.258;-121.918;2022-09-30T11:25:48;4.04;;;3.91;;
50345;SDS011;36248;37.258;-121.918;2022-09-30T11:28:34;3.04;;;2.98;;
50345;SDS011;36248;37.258;-121.918;2022-09-30T11:31:15;2.41;;;2.39;;
50345;SDS011;36248;37.258;-121.918;2022-09-30T11:34:01;2.51;;;2.48;;
50345;SDS011;36248;37.258;-121.918;2022-09-30T11:36:52;2.26;;;2.21;;
50345;SDS011;36248;37.258;-121.918;2022-09-30T11:39:39;2.16;;;2.09;;
50345;SDS011;36248;37.258;-121.918;2022-09-30T11:42:20;2.10;;;2.04;;
50345;SDS011;36248;37.258;-121.918;2022-09-30T11:44:56;2.18;;;2.09;;
50345;SDS011;36248;37.258;-121.918;2022-09-30T11:47:38;2.35;;;2.20;;
50345;SDS011;36248;37.258;-121.918;2022-09-30T11:50:27;1.90;;;1.81;;
50345;SDS011;36248;37.258;-121.918;2022-09-30T11:53:18;1.81;;;1.76;;
50345;SDS011;36248;37.258;-121.918;2022-09-30T11:56:08;1.82;;;1.77;;
50345;SDS011;36248;37.258;-121.918;2022-09-30T11:58:54;1.83;;;1.79;;
50345;SDS011;36248;37.258;-121.918;2022-09-30T12:01:32;1.65;;;1.63;;
50345;SDS011;36248;37.258;-121.918;2022-09-30T12:04:05;1.66;;;1.63;;
50345;SDS011;36248;37.258;-121.918;2022-09-30T12:06:39;1.72;;;1.67;;
50345;SDS011;36248;37.258;-121.918;2022-09-30T12:09:18;1.67;;;1.61;;
50345;SDS011;36248;37.258;-121.918;2022-09-30T12:11:54;1.70;;;1.64;;
50345;SDS011;36248;37.258;-121.918;2022-09-30T12:14:29;1.77;;;1.70;;
50345;SDS011;36248;37.258;-121.918;2022-09-30T12:17:04;1.95;;;1.87;;
50345;SDS011;36248;37.258;-121.918;2022-09-30T12:19:42;1.92;;;1.85;;
50345;SDS011;36248;37.258;-121.918;2022-09-30T12:22:16;1.89;;;1.82;;
50345;SDS011;36248;37.258;-121.918;2022-09-30T12:24:52;1.96;;;1.88;;
50345;SDS011;36248;37.258;-121.918;2022-09-30T12:27:24;2.13;;;2.01;;
50345;SDS011;36248;37.258;-121.918;2022-09-30T12:30:00;1.90;;;1.81;;
50345;SDS011;36248;37.258;-121.918;2022-09-30T12:32:55;1.82;;;1.74;;
50345;SDS011;36248;37.258;-121.918;2022-09-30T12:35:57;2.02;;;1.91;;
50345;SDS011;36248;37.258;-121.918;2022-09-30T12:38:57;1.91;;;1.82;;
50345;SDS011;36248;37.258;-121.918;2022-09-30T12:41:58;1.90;;;1.83;;
50345;SDS011;36248;37.258;-121.918;2022-09-30T12:44:44;2.01;;;1.94;;
50345;SDS011;36248;37.258;-121.918;2022-09-30T12:47:33;2.10;;;2.03;;
50345;SDS011;36248;37.258;-121.918;2022-09-30T12:50:11;2.15;;;2.10;;
50345;SDS011;36248;37.258;-121.918;2022-09-30T12:52:43;2.51;;;2.45;;
50345;SDS011;36248;37.258;-121.918;2022-09-30T12:55:17;3.02;;;2.92;;
50345;SDS011;36248;37.258;-121.918;2022-09-30T12:57:58;4.12;;;4.01;;
50345;SDS011;36248;37.258;-121.918;2022-09-30T13:00:30;3.51;;;3.42;;
50345;SDS011;36248;37.258;-121.918;2022-09-30T13:03:03;2.95;;;2.86;;
50345;SDS011;36248;37.258;-121.918;2022-09-30T13:05:49;2.15;;;2.09;;
50345;SDS011;36248;37.258;-121.918;2022-09-30T13:11:35;1.86;;;1.84;;
50345;SDS011;36248;37.258;-121.918;2022-09-30T13:14:23;1.71;;;1.68;;
50345;SDS011;36248;37.258;-121.918;2022-09-30T13:19:53;1.73;;;1.71;;
50345;SDS011;36248;37.258;-121.918;2022-09-30T13:25:24;1.70;;;1.68;;
50345;SDS011;36248;37.258;-121.918;2022-09-30T13:28:25;1.77;;;1.72;;
50345;SDS011;36248;37.258;-121.918;2022-09-30T13:34:04;1.88;;;1.82;;
50345;SDS011;36248;37.258;-121.918;2022-09-30T13:36:40;1.86;;;1.80;;
50345;SDS011;36248;37.258;-121.918;2022-09-30T13:39:26;1.88;;;1.81;;
50345;SDS011;36248;37.258;-121.918;2022-09-30T13:42:07;1.78;;;1.72;;
50345;SDS011;36248;37.258;-121.918;2022-09-30T13:44:52;1.80;;;1.74;;
50345;SDS011;36248;37.258;-121.918;2022-09-30T13:47:32;1.88;;;1.84;;
50345;SDS011;36248;37.258;-121.918;2022-09-30T13:50:11;1.91;;;1.85;;
50345;SDS011;36248;37.258;-121.918;2022-09-30T13:52:44;1.85;;;1.77;;
50345;SDS011;36248;37.258;-121.918;2022-09-30T13:55:19;1.52;;;1.47;;
50345;SDS011;36248;37.258;-121.918;2022-09-30T13:58:00;1.88;;;1.84;;
50345;SDS011;36248;37.258;-121.918;2022-09-30T14:00:44;1.80;;;1.74;;
50345;SDS011;36248;37.258;-121.918;2022-09-30T14:03:44;1.85;;;1.79;;
50345;SDS011;36248;37.258;-121.918;2022-09-30T14:06:34;2.00;;;1.95;;
50345;SDS011;36248;37.258;-121.918;2022-09-30T14:12:26;2.16;;;2.11;;
50345;SDS011;36248;37.258;-121.918;2022-09-30T14:18:24;1.75;;;1.70;;
50345;SDS011;36248;37.258;-121.918;2022-09-30T14:21:32;2.08;;;2.00;;
50345;SDS011;36248;37.258;-121.918;2022-09-30T14:24:09;1.94;;;1.89;;
50345;SDS011;36248;37.258;-121.918;2022-09-30T14:26:54;2.15;;;2.08;;
50345;SDS011;36248;37.258;-121.918;2022-09-30T14:29:49;1.79;;;1.73;;
50345;SDS011;36248;37.258;-121.918;2022-09-30T14:32:27;2.41;;;2.30;;
50345;SDS011;36248;37.258;-121.918;2022-09-30T14:34:59;2.72;;;2.58;;
50345;SDS011;36248;37.258;-121.918;2022-09-30T14:37:38;2.34;;;2.29;;
50345;SDS011;36248;37.258;-121.918;2022-09-30T14:40:14;2.22;;;2.18;;
50345;SDS011;36248;37.258;-121.918;2022-09-30T14:42:46;2.35;;;2.31;;
50345;SDS011;36248;37.258;-121.918;2022-09-30T14:45:20;2.15;;;2.13;;
50345;SDS011;36248;37.258;-121.918;2022-09-30T14:48:04;2.23;;;2.22;;
50345;SDS011;36248;37.258;-121.918;2022-09-30T14:50:39;2.41;;;2.38;;
50345;SDS011;36248;37.258;-121.918;2022-09-30T14:53:27;2.17;;;2.15;;
50345;SDS011;36248;37.258;-121.918;2022-09-30T14:55:59;2.34;;;2.29;;
50345;SDS011;36248;37.258;-121.918;2022-09-30T14:58:38;2.33;;;2.25;;
50345;SDS011;36248;37.258;-121.918;2022-09-30T15:01:10;2.23;;;2.17;;
50345;SDS011;36248;37.258;-121.918;2022-09-30T15:03:45;2.23;;;2.17;;
50345;SDS011;36248;37.258;-121.918;2022-09-30T15:06:22;1.92;;;1.86;;
50345;SDS011;36248;37.258;-121.918;2022-09-30T15:09:01;1.90;;;1.87;;
50345;SDS011;36248;37.258;-121.918;2022-09-30T15:11:32;2.03;;;1.99;;
50345;SDS011;36248;37.258;-121.918;2022-09-30T15:14:05;1.85;;;1.80;;
50345;SDS011;36248;37.258;-121.918;2022-09-30T15:16:43;1.77;;;1.71;;
50345;SDS011;36248;37.258;-121.918;2022-09-30T15:19:16;1.86;;;1.79;;
50345;SDS011;36248;37.258;-121.918;2022-09-30T15:21:50;1.92;;;1.83;;
50345;SDS011;36248;37.258;-121.918;2022-09-30T15:24:25;1.86;;;1.79;;
50345;SDS011;36248;37.258;-121.918;2022-09-30T15:26:57;1.77;;;1.71;;
50345;SDS011;36248;37.258;-121.918;2022-09-30T15:29:30;1.76;;;1.72;;
50345;SDS011;36248;37.258;-121.918;2022-09-30T15:32:00;1.79;;;1.75;;
50345;SDS011;36248;37.258;-121.918;2022-09-30T15:34:33;1.74;;;1.69;;